FCPP Airport Information

Runway Information
Runway 17 Length 8530 ft width 148 ft
Elevation 54 ft Threshold 0 ft Heading 166
Runway 35 Length 8530 ft Width 148 ft
Elevation 52 ft Threshold 0 ft Heading 346
Airport Frequencies
Type A/G Name A/G Frequency 549.3 MHZ
Type APP Name APP Frequency 118.3 MHZ
Type TWR Name TWR Frequency 124.3 MHZ
Airport Navaids
Type VOR Name Pointe Noire Frequency 114100 KHZ
Airport Weather Information & NOTAM
ADDS - METARS form results

(1010 UTC 21 June 2021)
Data provider http://aviationweather.gov/metar/data/
 
Forecast for: FCPP (POINTE-NOIRE , CG)
Text: TAF FCPP 210500Z 2106/2206 20004KT 5000 BR SCT010 BKN020
Forecast period: 0600 to 0700 UTC 21 June 2021
Forecast type: FROM: standard forecast or significant change
Winds: from the SSW (200 degrees) at 5 MPH (4 knots; 2.1 m/s)
Visibility: 3 miles (5 km)
Ceiling: 2000 feet AGL
Clouds: scattered clouds at 1000 feet AGL
broken clouds at 2000 feet AGL
Weather: BR  (mist)
Text: BECMG 2107/2109 7000 NSW
Forecast period: 0700 UTC 21 June 2021 to 0600 UTC 22 June 2021
Forecast type: BECOMING: Conditions expected to become as follows by 0900 UTC 21 June 2021
Winds: from the SSW (200 degrees) at 5 MPH (4 knots; 2.1 m/s)
Visibility: 4 miles (7 km)
Ceiling: 2000 feet AGL
Clouds: scattered clouds at 1000 feet AGL
broken clouds at 2000 feet AGL
Weather: NSW  (no significant weather)